• Join FlightAware (Why Join?)
  • Login
  • US Flag 
07:28PM EST


 

Airport Tracker/Info


-or-


 

Live Flight TrackerFlight Track Log ✈ EJA922 ✈ 05-Sep-2013 ✈ KTVC - KMSP

Flight Track Log - Related Links

Times and Time Zones

All times are in EDT time to prevent confusion due to time zone crossing. See the EJA922 flight status page for this flight to view local times or setup timezone preferences in your user account.

Time Position Orientation Groundspeed Altitude Reporting Facility
EDT Latitude Longitude Course Direction KTS MPH feet Rate Location/Type
03:50PM 44.7344 -85.4608 264° West 250 288 3,200  Level Minneapolis Center
03:51PM 44.7292 -85.3614 94° East 252 290 7,700 4,140 Climbing Minneapolis Center
03:52PM 44.7550 -85.2922 62° Northeast 245 282 11,800 3,000 Climbing Minneapolis Center
03:53PM 44.7703 -85.3900 282° West 265 305 14,000 2,100 Climbing Minneapolis Center
03:54PM 44.7761 -85.5164 274° West 319 367 16,200 1,980 Climbing Minneapolis Center
03:56PM 44.6877 -86.3063 264° West  Level FlightAware Approximate
03:56PM 44.7825 -85.6536 274° West 346 398 18,100  Level Minneapolis Center
03:57PM 44.7883 -85.7997 273° West 368 423 20,300 2,100 Climbing Minneapolis Center
03:58PM 44.7947 -85.9433 274° West 371 427 22,500 2,100 Climbing Minneapolis Center
03:59PM 44.8017 -86.0883 274° West 372 428 24,700 2,460 Climbing Minneapolis Center
04:00PM 44.8083 -86.2697 273° West 383 441 27,600 2,460 Climbing Minneapolis Center
04:01PM 44.8147 -86.4186 274° West 385 443 29,900 2,100 Climbing Minneapolis Center
04:02PM 44.8200 -86.5697 273° West 386 444 32,000 960 Climbing Minneapolis Center
04:03PM 44.8275 -86.7344 274° West 411 473 32,000  Level Minneapolis Center
04:04PM 44.8322 -86.9406 272° West 465 535 32,000  Level Minneapolis Center
04:05PM 44.8403 -87.1581 273° West 466 536 32,000  Level Minneapolis Center
04:06PM 44.8456 -87.3417 272° West 470 541 32,000  Level Minneapolis Center
04:07PM 44.8522 -87.5594 273° West 466 536 32,000  Level Minneapolis Center
04:08PM 44.8567 -87.7375 272° West 459 528 32,000  Level Minneapolis Center
04:09PM 44.8614 -87.9106 272° West 449 517 32,000  Level Minneapolis Center
04:10PM 44.8653 -88.0825 272° West 441 507 32,000  Level Minneapolis Center
04:11PM 44.8686 -88.2556 272° West 442 509 32,000  Level Minneapolis Center
04:12PM 44.8722 -88.4428 272° West 447 514 32,000  Level Minneapolis Center
04:13PM 44.8769 -88.6194 272° West 448 516 32,000  Level Minneapolis Center
04:14PM 44.8794 -88.7958 271° West 449 517 32,000  Level Minneapolis Center
04:15PM 44.8831 -89.0108 271° West 454 522 32,000  Level Minneapolis Center
04:16PM 44.8867 -89.1886 272° West 453 521 32,000  Level Minneapolis Center
04:17PM 44.8886 -89.3669 271° West 455 524 32,000  Level Minneapolis Center
04:19PM 44.8914 -89.5475 271° West 459 528 32,000  Level Minneapolis Center
04:20PM 44.8936 -89.7275 271° West 458 527 32,000  Level Minneapolis Center
04:21PM 44.8967 -89.9069 271° West 458 527 32,000  Level Minneapolis Center
04:22PM 44.9106 -90.0892 276° West 465 535 32,000  Level Minneapolis Center
04:23PM 44.9269 -90.3061 276° West 464 534 32,000  Level Minneapolis Center
04:24PM 44.9394 -90.4897 276° West 469 540 32,000  Level Minneapolis Center
04:25PM 44.9514 -90.6725 275° West 468 539 32,000 -780 Level Minneapolis Center
04:26PM 44.9642 -90.8569 276° West 473 544 30,300 -2,220 Descending Minneapolis Center
04:27PM 44.9781 -91.0961 275° West 493 567 27,000 -2,820 Descending Minneapolis Center
04:28PM 44.9908 -91.2856 276° West 491 565 24,500 -2,400 Descending Minneapolis Center
04:29PM 45.0019 -91.4625 275° West 467 537 22,100 -2,520 Descending Minneapolis Center
04:30PM 45.0128 -91.6656 274° West 444 511 19,300 -2,400 Descending Minneapolis Center
04:31PM 45.0236 -91.8278 275° West 426 490 17,200 -2,040 Descending Minneapolis Center
04:32PM 45.0328 -91.9856 275° West 404 465 15,100 -2,040 Descending Minneapolis Center
04:33PM 45.0400 -92.1261 274° West 364 419 13,100 -1,740 Descending Minneapolis Center
04:34PM 45.0481 -92.2639 275° West 355 409 11,200 -960 Descending Minneapolis Center
04:35PM 45.0236 -92.4519 260° West 351 404 11,000 -120 Descending Minneapolis Center
04:37PM 45.0019 -92.5869 257° West 353 406 11,000  Level Minneapolis Center
04:38PM 44.9806 -92.7219 257° West 352 405 11,000 -420 Level Minneapolis Center
04:39PM 44.9619 -92.8403 258° West 310 357 10,200 -1,200 Descending Minneapolis Center
04:40PM 44.9450 -92.9428 257° West 274 315 8,600 -1,080 Descending Minneapolis Center
04:41PM 44.9289 -93.0403 257° West 261 300 8,000 -360 Descending Minneapolis Center
04:42PM 44.9639 -93.1417 296° West 250 288 7,900 -960 Descending Minneapolis Center
04:43PM 45.0006 -93.2264 301° West 255 293 6,100 -1,800 Descending Minneapolis Center
04:44PM 45.0469 -93.3003 312° West 253 291 4,300 -1,020 Descending Minneapolis Center
04:45PM 45.0469 -93.3719 270° West 215 247 4,000 -360 Descending Minneapolis Center
04:46PM 44.9953 -93.3419 158° South 208 239 3,600 -900 Descending Minneapolis Center
04:47PM 44.9408 -93.2917 147° Southeast 197 227 2,200 -1,080 Descending Minneapolis Center
04:48PM 44.9064 -93.2497 139° Southeast 161 185 1,400 -780 Descending Minneapolis Center
04:50PM 44.8820 -93.2218 160° South  Level Estimated
04:57PM 44.8820 -93.2218 160° South  Level Estimated